Time;durP1;ratioP1;P1;durP2;ratioP2;P2;SDS_P1;SDS_P2;PMS_P1;PMS_P2;Temp;Humidity;BMP_temperature;BMP_pressure;BME280_temperature;BME280_humidity;BME280_pressure;Samples;Min_cycle;Max_cycle;Signal;HPM_P1;HPM_P2
2022/08/06 00:01:03;;;;;;;;;;;27.00;99.90;;;;;;5102275;28;19912;-78
2022/08/06 00:03:29;;;;;;;;;;;27.00;99.90;;;;;;5120431;28;20307;-77
2022/08/06 00:05:54;;;;;;;;;;;27.10;99.90;;;;;;5119374;28;19954;-78
2022/08/06 00:08:20;;;;;;;;;;;27.10;99.90;;;;;;5114085;28;19969;-77
2022/08/06 00:10:46;;;;;;;;;;;27.00;99.90;;;;;;5113073;28;19919;-77
2022/08/06 00:13:11;;;;;;;;;;;27.00;99.90;;;;;;5102106;28;20023;-77
2022/08/06 00:15:37;;;;;;;;;;;26.80;99.90;;;;;;5087452;28;19909;-78
2022/08/06 00:18:03;;;;;;;;;;;26.70;99.90;;;;;;5083713;28;19912;-77
2022/08/06 00:20:28;;;;;;;;;;;26.60;99.90;;;;;;5071361;28;19920;-77
2022/08/06 00:22:54;;;;;;;;;;;26.60;99.90;;;;;;5084964;28;20253;-76
2022/08/06 00:25:19;;;;;;;;;;;26.80;99.90;;;;;;5086277;28;19916;-77
2022/08/06 00:27:45;;;;;;;;;;;26.80;99.90;;;;;;5085047;28;20479;-77
2022/08/06 00:30:11;;;;;;;;;;;26.90;99.90;;;;;;5081528;28;19931;-77
2022/08/06 00:32:36;;;;;;;;;;;27.00;99.90;;;;;;5079998;28;19913;-77
2022/08/06 00:35:03;;;;;;;;;;;27.00;99.90;;;;;;5078872;28;20313;-78
2022/08/06 00:37:31;;;;;;;;;;;27.00;99.90;;;;;;5085065;28;20072;-78
2022/08/06 00:40:00;;;;;;;;;;;27.00;99.90;;;;;;5100277;28;20341;-77
2022/08/06 00:42:26;;;;;;;;;;;27.10;99.90;;;;;;5083221;28;20003;-77
2022/08/06 00:44:52;;;;;;;;;;;27.20;99.90;;;;;;5080909;28;19974;-76
2022/08/06 00:47:17;;;;;;;;;;;27.10;99.90;;;;;;5078023;28;19916;-77
2022/08/06 00:49:43;;;;;;;;;;;27.20;99.90;;;;;;5085162;28;20284;-77
2022/08/06 00:52:09;;;;;;;;;;;27.10;99.90;;;;;;5081001;28;19939;-78
2022/08/06 00:54:34;;;;;;;;;;;27.10;99.90;;;;;;5079474;28;20257;-77
2022/08/06 00:57:00;;;;;;;;;;;27.10;99.90;;;;;;5079692;28;19916;-77
2022/08/06 00:59:25;;;;;;;;;;;27.00;99.90;;;;;;5078923;28;19919;-76
2022/08/06 01:01:51;;;;;;;;;;;27.00;99.90;;;;;;5059711;28;20007;-77
2022/08/06 01:04:17;;;;;;;;;;;26.90;99.90;;;;;;5074659;28;20270;-77
2022/08/06 01:06:43;;;;;;;;;;;26.80;99.90;;;;;;5080176;28;19912;-77
2022/08/06 01:09:09;;;;;;;;;;;26.60;99.90;;;;;;5067671;28;19931;-78
2022/08/06 01:11:34;;;;;;;;;;;26.40;99.90;;;;;;5080493;28;19916;-77
2022/08/06 01:14:00;;;;;;;;;;;26.30;99.90;;;;;;5078337;28;19912;-77
2022/08/06 01:16:34;;;;;;;;;;;26.30;99.90;;;;;;5073691;28;19920;-78
2022/08/06 01:19:00;;;;;;;;;;;26.30;99.90;;;;;;5078498;28;20048;-77
2022/08/06 01:21:38;;;;;;;;;;;26.40;99.90;;;;;;5068350;28;20590;-77
2022/08/06 01:24:06;;;;;;;;;;;26.30;99.90;;;;;;5079613;28;20331;-78
2022/08/06 01:26:35;;;;;;;;;;;26.20;99.90;;;;;;5077530;28;19958;-77
2022/08/06 01:29:03;;;;;;;;;;;26.20;99.90;;;;;;5077294;28;19975;-79
2022/08/06 01:31:43;;;;;;;;;;;26.20;99.90;;;;;;5076594;28;20033;-77
2022/08/06 01:34:27;;;;;;;;;;;26.30;99.90;;;;;;5077397;28;19956;-77
2022/08/06 01:37:09;;;;;;;;;;;26.20;99.90;;;;;;5080581;28;19913;-77
2022/08/06 01:39:36;;;;;;;;;;;26.20;99.90;;;;;;5078642;28;19983;-77
2022/08/06 01:42:03;;;;;;;;;;;26.20;99.90;;;;;;5080458;28;19912;-77
2022/08/06 01:44:30;;;;;;;;;;;26.40;99.90;;;;;;5077171;28;19916;-78
2022/08/06 01:46:58;;;;;;;;;;;26.30;99.90;;;;;;5079988;28;20010;-77
2022/08/06 01:49:25;;;;;;;;;;;26.30;99.90;;;;;;5079318;28;19924;-77
2022/08/06 01:51:51;;;;;;;;;;;26.40;99.90;;;;;;5063476;28;20000;-77
2022/08/06 01:54:18;;;;;;;;;;;26.30;99.90;;;;;;5093487;28;19935;-76
2022/08/06 01:56:44;;;;;;;;;;;26.30;99.90;;;;;;5107017;28;19975;-77
2022/08/06 01:59:12;;;;;;;;;;;26.20;99.90;;;;;;5103659;28;20092;-77
2022/08/06 02:01:38;;;;;;;;;;;26.10;99.90;;;;;;5091309;28;19951;-77
2022/08/06 02:04:04;;;;;;;;;;;26.10;99.90;;;;;;5091264;28;19930;-78
2022/08/06 02:06:34;;;;;;;;;;;26.20;99.90;;;;;;5089626;28;19908;-77
2022/08/06 02:09:15;;;;;;;;;;;26.10;99.90;;;;;;5094765;28;19924;-77
2022/08/06 02:11:42;;;;;;;;;;;26.00;99.90;;;;;;5095751;28;19963;-78
2022/08/06 02:14:09;;;;;;;;;;;25.90;99.90;;;;;;5085880;28;19904;-76
2022/08/06 02:16:36;;;;;;;;;;;26.10;99.90;;;;;;5114761;28;19923;-78
2022/08/06 02:19:03;;;;;;;;;;;26.00;99.90;;;;;;5112214;28;19908;-75
2022/08/06 02:21:30;;;;;;;;;;;26.10;99.90;;;;;;5118996;28;19915;-76
2022/08/06 02:23:56;;;;;;;;;;;26.10;99.90;;;;;;5118352;28;19904;-78
2022/08/06 02:26:23;;;;;;;;;;;26.00;99.90;;;;;;5116672;28;19945;-77
2022/08/06 02:28:49;;;;;;;;;;;26.20;99.90;;;;;;5130593;28;19916;-77
2022/08/06 02:31:14;;;;;;;;;;;26.10;99.90;;;;;;5096174;28;19955;-77
2022/08/06 02:33:40;;;;;;;;;;;26.10;99.90;;;;;;5105676;28;19934;-77
2022/08/06 02:36:19;;;;;;;;;;;26.30;99.90;;;;;;5109803;28;20428;-77
2022/08/06 02:38:49;;;;;;;;;;;26.10;99.90;;;;;;5078966;28;19923;-78
2022/08/06 02:41:20;;;;;;;;;;;26.10;99.90;;;;;;5096395;28;19908;-78
2022/08/06 02:44:09;;;;;;;;;;;26.20;99.90;;;;;;5095888;28;20006;-77
2022/08/06 02:46:39;;;;;;;;;;;26.10;99.90;;;;;;5088823;28;19958;-76
2022/08/06 02:49:16;;;;;;;;;;;26.30;99.90;;;;;;5096291;28;19919;-77
2022/08/06 02:51:45;;;;;;;;;;;26.40;99.90;;;;;;5095576;28;19916;-77
2022/08/06 02:54:22;;;;;;;;;;;26.40;99.90;;;;;;5091934;28;19916;-77
2022/08/06 02:56:49;;;;;;;;;;;26.40;99.90;;;;;;5084847;28;19990;-77
2022/08/06 02:59:17;;;;;;;;;;;26.40;99.90;;;;;;5091048;28;19994;-76
2022/08/06 03:01:50;;;;;;;;;;;26.30;99.90;;;;;;5079024;28;19944;-76
2022/08/06 03:04:16;;;;;;;;;;;26.30;99.90;;;;;;5084080;28;19934;-77
2022/08/06 03:06:44;;;;;;;;;;;26.30;99.90;;;;;;5088860;28;19913;-78
2022/08/06 03:09:11;;;;;;;;;;;26.30;99.90;;;;;;5088743;28;20045;-77
2022/08/06 03:11:37;;;;;;;;;;;26.30;99.90;;;;;;5089112;28;20404;-76
2022/08/06 03:14:04;;;;;;;;;;;26.20;99.90;;;;;;5089572;28;20380;-77
2022/08/06 03:16:33;;;;;;;;;;;26.30;99.90;;;;;;5101470;27;20313;-76
2022/08/06 03:18:59;;;;;;;;;;;26.30;99.90;;;;;;5082748;28;20380;-77
2022/08/06 03:21:26;;;;;;;;;;;26.30;99.90;;;;;;5097676;27;19920;-77
2022/08/06 03:23:52;;;;;;;;;;;26.40;99.90;;;;;;5089179;28;20406;-76
2022/08/06 03:26:18;;;;;;;;;;;26.50;99.90;;;;;;5081116;28;19916;-78
2022/08/06 03:28:43;;;;;;;;;;;26.50;99.90;;;;;;5086113;28;19969;-77
2022/08/06 03:31:10;;;;;;;;;;;26.40;99.90;;;;;;5093512;28;19919;-77
2022/08/06 03:33:35;;;;;;;;;;;26.20;99.90;;;;;;5085155;28;19916;-78
2022/08/06 03:36:01;;;;;;;;;;;26.20;99.90;;;;;;5081496;28;19920;-77
2022/08/06 03:38:31;;;;;;;;;;;26.20;99.90;;;;;;5076294;28;19934;-77
2022/08/06 03:40:58;;;;;;;;;;;26.10;99.90;;;;;;5088084;28;19919;-77
2022/08/06 03:43:24;;;;;;;;;;;26.30;99.90;;;;;;5115611;28;19977;-76
2022/08/06 03:45:56;;;;;;;;;;;26.40;99.90;;;;;;5086688;28;20377;-75
2022/08/06 03:48:24;;;;;;;;;;;26.30;99.90;;;;;;5078718;28;19920;-77
2022/08/06 03:50:51;;;;;;;;;;;26.20;99.90;;;;;;5059253;28;19909;-76
2022/08/06 03:53:22;;;;;;;;;;;26.30;99.90;;;;;;5081578;28;19971;-78
2022/08/06 03:55:48;;;;;;;;;;;26.20;99.90;;;;;;5082333;28;19939;-77
2022/08/06 03:58:14;;;;;;;;;;;26.10;99.90;;;;;;5080171;28;19916;-77
2022/08/06 04:00:44;;;;;;;;;;;26.00;99.90;;;;;;5092728;27;19916;-78
2022/08/06 04:03:10;;;;;;;;;;;25.90;99.90;;;;;;5082080;28;19920;-76
2022/08/06 04:05:36;;;;;;;;;;;25.90;99.90;;;;;;5083519;28;19917;-76
2022/08/06 04:08:03;;;;;;;;;;;25.90;99.90;;;;;;5079970;28;20057;-76
2022/08/06 04:10:46;;;;;;;;;;;26.00;99.90;;;;;;5079717;28;19943;-76
2022/08/06 04:13:13;;;;;;;;;;;26.00;99.90;;;;;;5081383;28;19912;-77
2022/08/06 04:15:39;;;;;;;;;;;26.00;99.90;;;;;;5092248;28;19962;-76
2022/08/06 04:18:07;;;;;;;;;;;26.00;99.90;;;;;;5104721;28;19923;-78
2022/08/06 04:20:33;;;;;;;;;;;26.20;99.90;;;;;;5106905;28;19940;-77
2022/08/06 04:22:58;;;;;;;;;;;26.20;99.90;;;;;;5105455;28;19923;-76
2022/08/06 04:25:25;;;;;;;;;;;26.20;99.90;;;;;;5115737;28;19911;-77
2022/08/06 04:27:51;;;;;;;;;;;26.20;99.90;;;;;;5110984;28;19916;-77
2022/08/06 04:30:17;;;;;;;;;;;26.10;99.90;;;;;;5095574;28;20041;-76
2022/08/06 04:32:43;;;;;;;;;;;26.10;99.90;;;;;;5083864;28;20006;-78
2022/08/06 04:35:10;;;;;;;;;;;26.20;99.90;;;;;;5082779;28;19940;-77
2022/08/06 04:37:36;;;;;;;;;;;26.20;99.90;;;;;;5078639;28;19913;-77
2022/08/06 04:40:02;;;;;;;;;;;26.30;99.90;;;;;;5080268;28;19928;-78
2022/08/06 04:42:28;;;;;;;;;;;26.30;99.90;;;;;;5079176;28;19927;-78
2022/08/06 04:44:53;;;;;;;;;;;26.40;99.90;;;;;;5081213;28;19912;-78
2022/08/06 04:47:19;;;;;;;;;;;26.40;99.90;;;;;;5088160;28;20026;-77
2022/08/06 04:49:45;;;;;;;;;;;26.60;99.90;;;;;;5085230;28;19939;-77
2022/08/06 04:52:23;;;;;;;;;;;26.60;99.90;;;;;;5082068;28;20296;-78
2022/08/06 04:54:49;;;;;;;;;;;26.70;99.90;;;;;;5087901;28;19912;-78
2022/08/06 04:57:14;;;;;;;;;;;26.80;99.90;;;;;;5110223;28;19959;-78
2022/08/06 04:59:40;;;;;;;;;;;26.90;99.90;;;;;;5112664;28;19931;-77
2022/08/06 05:02:05;;;;;;;;;;;26.90;99.90;;;;;;5091441;28;19912;-78
2022/08/06 05:04:32;;;;;;;;;;;26.90;99.90;;;;;;5091239;28;20540;-78
2022/08/06 05:07:01;;;;;;;;;;;26.70;99.90;;;;;;5091603;28;19915;-77
2022/08/06 05:09:27;;;;;;;;;;;26.80;99.90;;;;;;5085498;28;19916;-77
2022/08/06 05:12:04;;;;;;;;;;;26.80;99.90;;;;;;5078600;28;20011;-78
2022/08/06 05:14:35;;;;;;;;;;;26.90;99.90;;;;;;5079113;28;19958;-78
2022/08/06 05:17:01;;;;;;;;;;;27.00;99.90;;;;;;5078083;28;19928;-78
2022/08/06 05:19:30;;;;;;;;;;;27.00;99.90;;;;;;5079671;28;19998;-78
2022/08/06 05:21:58;;;;;;;;;;;27.00;99.90;;;;;;5076336;28;19962;-77
2022/08/06 05:24:24;;;;;;;;;;;27.10;99.90;;;;;;5073547;28;20345;-77
2022/08/06 05:26:49;;;;;;;;;;;27.20;99.90;;;;;;5062105;28;19920;-77
2022/08/06 05:29:20;;;;;;;;;;;27.30;99.90;;;;;;5075488;28;19917;-77
2022/08/06 05:31:46;;;;;;;;;;;27.30;99.90;;;;;;5069559;28;19912;-77
2022/08/06 05:34:12;;;;;;;;;;;27.30;99.90;;;;;;5097975;28;19920;-76
2022/08/06 05:36:38;;;;;;;;;;;27.30;99.90;;;;;;5064436;28;20012;-78
2022/08/06 05:39:03;;;;;;;;;;;27.30;99.90;;;;;;5077684;28;19913;-77
2022/08/06 05:41:29;;;;;;;;;;;27.30;99.90;;;;;;5078412;28;19919;-78
2022/08/06 05:43:55;;;;;;;;;;;27.30;99.90;;;;;;5079839;28;19938;-77
2022/08/06 05:46:21;;;;;;;;;;;27.30;99.90;;;;;;5081654;28;20377;-79
2022/08/06 05:48:54;;;;;;;;;;;27.40;99.90;;;;;;5090985;28;19921;-78
2022/08/06 05:51:41;;;;;;;;;;;27.40;99.90;;;;;;5089086;28;20529;-77
2022/08/06 05:54:25;;;;;;;;;;;27.40;99.90;;;;;;5082360;28;19912;-77
2022/08/06 05:56:55;;;;;;;;;;;27.40;99.90;;;;;;5083759;28;19966;-77
2022/08/06 05:59:26;;;;;;;;;;;27.50;99.90;;;;;;5083231;28;19913;-77
2022/08/06 06:01:51;;;;;;;;;;;27.50;99.90;;;;;;5084452;28;19912;-79
2022/08/06 06:04:18;;;;;;;;;;;27.50;99.90;;;;;;5079978;28;19912;-78
2022/08/06 06:06:44;;;;;;;;;;;27.50;99.90;;;;;;5086216;28;19915;-79
2022/08/06 06:09:10;;;;;;;;;;;27.70;99.90;;;;;;5081172;28;20365;-78
2022/08/06 06:11:36;;;;;;;;;;;27.80;99.90;;;;;;5080038;28;20036;-77
2022/08/06 06:14:02;;;;;;;;;;;27.80;99.90;;;;;;5078851;28;20015;-78
2022/08/06 06:16:31;;;;;;;;;;;27.90;99.90;;;;;;5084144;28;19913;-78
2022/08/06 06:19:20;;;;;;;;;;;28.10;99.90;;;;;;5084029;28;20006;-77
2022/08/06 06:21:45;;;;;;;;;;;28.20;99.90;;;;;;5079878;28;20281;-77
2022/08/06 06:24:17;;;;;;;;;;;28.30;99.90;;;;;;5080333;28;20021;-77
2022/08/06 06:26:42;;;;;;;;;;;28.40;99.90;;;;;;5082137;28;19966;-77
2022/08/06 06:29:15;;;;;;;;;;;28.60;99.90;;;;;;5061478;28;19919;-78
2022/08/06 06:31:46;;;;;;;;;;;28.70;99.90;;;;;;5078772;28;19916;-77
2022/08/06 06:34:17;;;;;;;;;;;28.80;99.90;;;;;;5081351;28;19912;-77
2022/08/06 06:37:01;;;;;;;;;;;28.90;99.90;;;;;;5059227;28;20007;-78
2022/08/06 06:39:33;;;;;;;;;;;29.10;99.90;;;;;;5069965;28;19919;-77
2022/08/06 06:42:19;;;;;;;;;;;29.10;99.90;;;;;;5083936;28;20362;-77
2022/08/06 06:44:45;;;;;;;;;;;29.20;99.90;;;;;;5088694;28;19913;-78
2022/08/06 06:47:30;;;;;;;;;;;29.50;99.90;;;;;;5089650;28;19918;-77
2022/08/06 06:50:01;;;;;;;;;;;29.70;99.90;;;;;;5084864;28;19972;-78
2022/08/06 06:52:28;;;;;;;;;;;29.80;99.90;;;;;;5086089;28;19951;-78
2022/08/06 06:55:16;;;;;;;;;;;29.90;99.90;;;;;;5084332;28;19956;-78
2022/08/06 06:57:44;;;;;;;;;;;30.10;99.90;;;;;;5079579;28;19925;-78
2022/08/06 07:00:11;;;;;;;;;;;30.20;99.90;;;;;;5086358;28;20424;-76
2022/08/06 07:02:40;;;;;;;;;;;30.30;99.90;;;;;;5075865;28;19912;-77
2022/08/06 07:05:06;;;;;;;;;;;30.50;99.90;;;;;;5089306;28;19916;-78
2022/08/06 07:07:32;;;;;;;;;;;30.80;99.90;;;;;;5093858;28;19912;-77
2022/08/06 07:09:59;;;;;;;;;;;30.80;99.90;;;;;;5103594;28;19923;-77
2022/08/06 07:12:25;;;;;;;;;;;31.00;99.90;;;;;;5098075;28;19947;-77
2022/08/06 07:14:53;;;;;;;;;;;30.90;99.90;;;;;;5122262;28;20383;-79
2022/08/06 07:17:18;;;;;;;;;;;31.00;99.90;;;;;;5121919;28;20022;-78
2022/08/06 07:19:46;;;;;;;;;;;31.20;99.90;;;;;;5104989;28;19969;-79
2022/08/06 07:22:11;;;;;;;;;;;31.30;99.90;;;;;;5081330;28;20018;-78
2022/08/06 07:24:37;;;;;;;;;;;31.50;99.90;;;;;;5115635;28;19966;-77
2022/08/06 07:27:03;;;;;;;;;;;31.60;99.90;;;;;;5101772;28;19912;-77
2022/08/06 07:29:29;;;;;;;;;;;31.90;99.90;;;;;;5102930;28;20403;-78
2022/08/06 07:31:55;;;;;;;;;;;32.10;99.90;;;;;;5101216;28;19920;-78
2022/08/06 07:34:22;;;;;;;;;;;32.30;99.90;;;;;;5102810;28;20435;-76
2022/08/06 07:36:50;;;;;;;;;;;32.60;99.90;;;;;;5081844;28;19966;-78
2022/08/06 07:39:21;;;;;;;;;;;32.90;99.90;;;;;;5097757;28;20002;-77
2022/08/06 07:41:47;;;;;;;;;;;33.20;99.90;;;;;;5102676;28;19957;-77
2022/08/06 07:44:12;;;;;;;;;;;33.40;99.90;;;;;;5093828;28;19924;-77
2022/08/06 07:46:41;;;;;;;;;;;33.40;99.90;;;;;;5093805;28;20015;-77
2022/08/06 07:49:07;;;;;;;;;;;33.50;99.90;;;;;;5075107;28;19916;-77
2022/08/06 07:51:34;;;;;;;;;;;33.60;99.90;;;;;;5128125;27;19908;-77
2022/08/06 07:54:01;;;;;;;;;;;33.80;99.90;;;;;;5113875;28;19916;-71
2022/08/06 07:56:27;;;;;;;;;;;34.00;99.90;;;;;;5114316;28;19999;-70
2022/08/06 07:58:53;;;;;;;;;;;33.80;99.90;;;;;;5088919;28;20407;-70
2022/08/06 08:01:19;;;;;;;;;;;33.70;99.90;;;;;;5111299;28;19907;-70
2022/08/06 08:06:34;;;;;;;;;;;33.50;99.90;;;;;;5055929;28;19912;-71
2022/08/06 08:09:05;;;;;;;;;;;33.30;99.90;;;;;;5074832;28;19922;-71
2022/08/06 08:11:32;;;;;;;;;;;33.00;99.90;;;;;;5113413;28;19914;-70
2022/08/06 08:13:58;;;;;;;;;;;32.80;99.90;;;;;;5105707;28;20006;-70
2022/08/06 08:16:26;;;;;;;;;;;32.80;99.90;;;;;;5106947;28;19912;-71
2022/08/06 08:18:51;;;;;;;;;;;32.90;99.90;;;;;;5103887;28;19962;-72
2022/08/06 08:21:17;;;;;;;;;;;32.90;99.90;;;;;;5108538;28;19947;-70
2022/08/06 08:23:43;;;;;;;;;;;32.90;99.90;;;;;;5100047;28;19912;-71
2022/08/06 08:26:09;;;;;;;;;;;32.90;99.90;;;;;;5096528;28;20289;-71
2022/08/06 08:28:35;;;;;;;;;;;33.00;99.90;;;;;;5093005;28;19977;-71
2022/08/06 08:31:03;;;;;;;;;;;33.10;99.90;;;;;;5094121;28;20404;-71
2022/08/06 08:33:29;;;;;;;;;;;33.30;99.90;;;;;;5105593;27;19923;-71
2022/08/06 08:35:54;;;;;;;;;;;33.50;99.90;;;;;;5108783;28;19907;-71
2022/08/06 08:38:20;;;;;;;;;;;33.80;99.90;;;;;;5095080;28;19908;-71
2022/08/06 08:40:47;;;;;;;;;;;33.80;99.90;;;;;;5096915;28;20026;-71
2022/08/06 08:43:17;;;;;;;;;;;33.80;99.90;;;;;;5101270;28;19912;-72
2022/08/06 08:45:43;;;;;;;;;;;34.00;99.90;;;;;;5104029;28;20265;-70
2022/08/06 08:48:10;;;;;;;;;;;34.10;99.90;;;;;;5096041;28;19916;-70
2022/08/06 08:50:37;;;;;;;;;;;33.90;99.90;;;;;;5097452;28;19979;-71
2022/08/06 08:53:13;;;;;;;;;;;33.90;99.90;;;;;;5105315;28;20506;-71
2022/08/06 08:55:39;;;;;;;;;;;33.90;99.90;;;;;;5100995;28;19912;-71
2022/08/06 08:58:05;;;;;;;;;;;34.00;99.90;;;;;;5099550;28;19938;-71
2022/08/06 09:00:31;;;;;;;;;;;34.00;99.90;;;;;;5101509;28;20818;-70
2022/08/06 09:02:57;;;;;;;;;;;34.10;99.90;;;;;;5098968;28;19916;-71
2022/08/06 09:05:22;;;;;;;;;;;34.10;99.90;;;;;;5111357;28;19919;-71
2022/08/06 09:07:48;;;;;;;;;;;34.10;99.90;;;;;;5104846;28;19916;-71
2022/08/06 09:10:14;;;;;;;;;;;34.20;99.90;;;;;;5097368;28;19916;-71
2022/08/06 09:12:41;;;;;;;;;;;34.00;99.90;;;;;;5105367;28;19936;-71
2022/08/06 09:15:06;;;;;;;;;;;34.00;99.90;;;;;;5111079;28;19951;-71
2022/08/06 09:17:32;;;;;;;;;;;34.10;99.90;;;;;;5099143;28;20411;-71
2022/08/06 09:19:58;;;;;;;;;;;34.10;99.90;;;;;;5098871;28;19997;-71
2022/08/06 09:22:23;;;;;;;;;;;34.10;99.90;;;;;;5098703;28;19916;-71
2022/08/06 09:24:49;;;;;;;;;;;34.10;99.90;;;;;;5117720;28;19957;-71
2022/08/06 09:27:15;;;;;;;;;;;34.10;99.90;;;;;;5096613;28;19934;-70
2022/08/06 09:29:49;;;;;;;;;;;34.00;99.90;;;;;;5097771;28;19939;-71
2022/08/06 09:32:34;;;;;;;;;;;34.00;99.90;;;;;;5091394;28;20350;-69
2022/08/06 09:35:00;;;;;;;;;;;34.30;99.90;;;;;;5101680;28;19912;-69
2022/08/06 09:37:26;;;;;;;;;;;34.40;99.90;;;;;;5093746;28;19962;-71
2022/08/06 09:39:52;;;;;;;;;;;34.30;99.90;;;;;;5093770;28;19934;-72
2022/08/06 09:42:35;;;;;;;;;;;34.30;99.90;;;;;;5095349;28;19920;-72
2022/08/06 09:45:08;;;;;;;;;;;34.30;99.90;;;;;;5098633;28;19916;-69
2022/08/06 09:47:35;;;;;;;;;;;34.30;99.90;;;;;;5090138;28;20305;-69
2022/08/06 09:50:01;;;;;;;;;;;34.40;99.90;;;;;;5071663;28;19916;-68
2022/08/06 09:52:27;;;;;;;;;;;34.60;99.90;;;;;;5094619;28;19912;-72
2022/08/06 09:54:52;;;;;;;;;;;34.60;99.90;;;;;;5078550;28;19912;-71
2022/08/06 09:57:18;;;;;;;;;;;34.60;99.90;;;;;;5105104;28;19943;-70
2022/08/06 09:59:47;;;;;;;;;;;34.60;99.90;;;;;;5092052;28;19912;-71
2022/08/06 10:02:14;;;;;;;;;;;34.50;99.90;;;;;;5074258;28;19918;-73
2022/08/06 10:04:40;;;;;;;;;;;34.60;99.90;;;;;;5095041;28;19912;-71
2022/08/06 10:07:07;;;;;;;;;;;34.70;99.90;;;;;;5090189;28;19908;-70
2022/08/06 10:09:33;;;;;;;;;;;34.60;99.90;;;;;;5090742;28;20321;-71
2022/08/06 10:11:59;;;;;;;;;;;34.50;99.90;;;;;;5091695;28;19912;-71
2022/08/06 10:14:32;;;;;;;;;;;34.60;99.90;;;;;;5111197;28;19911;-71
2022/08/06 10:17:07;;;;;;;;;;;34.50;99.90;;;;;;5111339;28;20337;-70
2022/08/06 10:19:32;;;;;;;;;;;34.70;99.90;;;;;;5104615;28;20000;-71
2022/08/06 10:22:05;;;;;;;;;;;34.70;99.90;;;;;;5090510;28;19951;-71
2022/08/06 10:24:32;;;;;;;;;;;34.60;99.90;;;;;;5110701;28;19912;-71
2022/08/06 10:26:58;;;;;;;;;;;34.70;99.90;;;;;;5105167;28;19934;-71
2022/08/06 10:29:24;;;;;;;;;;;35.00;99.90;;;;;;5107718;28;19912;-70
2022/08/06 10:31:52;;;;;;;;;;;35.00;99.90;;;;;;5091999;28;19978;-70
2022/08/06 10:34:23;;;;;;;;;;;34.80;99.90;;;;;;5112663;28;19920;-71
2022/08/06 10:36:53;;;;;;;;;;;34.80;99.90;;;;;;5096867;28;20222;-71
2022/08/06 10:39:21;;;;;;;;;;;34.80;99.90;;;;;;5094492;28;19955;-70
2022/08/06 10:41:47;;;;;;;;;;;34.90;99.90;;;;;;5075730;28;19908;-71
2022/08/06 10:44:13;;;;;;;;;;;35.10;99.90;;;;;;5097327;28;20364;-70
2022/08/06 10:46:39;;;;;;;;;;;35.10;99.90;;;;;;5106484;28;19919;-69
2022/08/06 10:49:06;;;;;;;;;;;35.30;99.90;;;;;;5112888;28;19916;-70
2022/08/06 10:51:32;;;;;;;;;;;35.20;99.90;;;;;;5114147;28;19912;-71
2022/08/06 10:53:58;;;;;;;;;;;35.10;99.90;;;;;;5108746;28;19915;-71
2022/08/06 10:56:25;;;;;;;;;;;35.10;99.90;;;;;;5093467;28;20002;-71
2022/08/06 10:58:51;;;;;;;;;;;35.10;99.90;;;;;;5093845;28;19908;-71
2022/08/06 11:01:42;;;;;;;;;;;35.20;99.90;;;;;;5093517;28;19908;-71
2022/08/06 11:04:26;;;;;;;;;;;35.30;99.90;;;;;;5094418;28;19961;-71
2022/08/06 11:07:04;;;;;;;;;;;35.30;99.90;;;;;;5097202;28;19916;-70
2022/08/06 11:09:35;;;;;;;;;;;35.20;99.90;;;;;;5098346;28;20064;-72
2022/08/06 11:12:19;;;;;;;;;;;35.30;99.90;;;;;;5103182;28;19912;-72
2022/08/06 11:14:45;;;;;;;;;;;35.30;99.90;;;;;;5059753;28;20381;-71
2022/08/06 11:17:11;;;;;;;;;;;35.30;99.90;;;;;;5108848;28;19923;-71
2022/08/06 11:19:41;;;;;;;;;;;35.50;99.90;;;;;;5093631;28;20385;-72
2022/08/06 11:22:07;;;;;;;;;;;35.60;99.90;;;;;;5112497;28;19951;-74
2022/08/06 11:24:33;;;;;;;;;;;35.50;99.90;;;;;;5095433;28;19957;-74
2022/08/06 11:26:59;;;;;;;;;;;35.60;99.90;;;;;;5103376;28;20399;-73
2022/08/06 11:29:24;;;;;;;;;;;35.50;99.90;;;;;;5090838;28;20014;-70
2022/08/06 11:31:51;;;;;;;;;;;35.40;99.90;;;;;;5098671;28;19912;-71
2022/08/06 11:34:20;;;;;;;;;;;35.50;99.90;;;;;;5093422;28;20377;-72
2022/08/06 11:36:54;;;;;;;;;;;35.60;99.90;;;;;;5090859;28;19912;-73
2022/08/06 11:39:20;;;;;;;;;;;35.60;99.90;;;;;;5093619;28;19966;-72
2022/08/06 11:41:47;;;;;;;;;;;35.70;99.90;;;;;;5092050;28;19963;-71
2022/08/06 11:44:16;;;;;;;;;;;36.00;99.90;;;;;;5080234;28;19991;-71
2022/08/06 11:46:45;;;;;;;;;;;36.20;99.90;;;;;;5090741;28;19912;-73
2022/08/06 11:49:15;;;;;;;;;;;36.40;99.90;;;;;;5084247;28;19920;-72
2022/08/06 11:51:46;;;;;;;;;;;36.20;99.90;;;;;;5098558;28;20266;-72
2022/08/06 11:54:19;;;;;;;;;;;35.90;99.90;;;;;;5086536;28;20242;-72
2022/08/06 11:59:33;;;;;;;;;;;36.30;99.90;;;;;;5087313;28;19916;-70
2022/08/06 12:02:00;;;;;;;;;;;36.60;99.90;;;;;;5093735;28;19938;-71
2022/08/06 12:04:32;;;;;;;;;;;36.50;99.90;;;;;;5094690;28;20238;-73
2022/08/06 12:07:12;;;;;;;;;;;36.20;99.90;;;;;;5089238;28;20363;-72
2022/08/06 12:09:38;;;;;;;;;;;36.10;99.90;;;;;;5092307;28;19924;-72
2022/08/06 12:12:22;;;;;;;;;;;35.90;99.90;;;;;;5105489;28;20266;-73
2022/08/06 12:14:48;;;;;;;;;;;36.00;99.90;;;;;;5092697;28;19912;-72
2022/08/06 12:17:14;;;;;;;;;;;36.40;99.90;;;;;;5092515;28;20409;-71
2022/08/06 12:19:44;;;;;;;;;;;36.40;99.90;;;;;;5088957;28;19919;-71
2022/08/06 12:22:11;;;;;;;;;;;36.40;99.90;;;;;;5094897;28;20015;-71
2022/08/06 12:24:37;;;;;;;;;;;36.30;99.90;;;;;;5092761;28;19930;-71
2022/08/06 12:27:06;;;;;;;;;;;36.20;99.90;;;;;;5077063;28;19918;-69
2022/08/06 12:29:32;;;;;;;;;;;36.10;99.90;;;;;;5092641;28;19993;-72
2022/08/06 12:31:58;;;;;;;;;;;35.90;99.90;;;;;;5092971;28;19913;-73
2022/08/06 12:34:29;;;;;;;;;;;35.70;99.90;;;;;;5095204;28;19999;-72
2022/08/06 12:36:56;;;;;;;;;;;35.70;99.90;;;;;;5092375;28;19967;-72
2022/08/06 12:40:23;;;;;;;;;;;35.60;99.90;;;;;;5074053;28;19999;-71
2022/08/06 12:42:20;;;;;;;;;;;35.60;99.90;;;;;;5073014;28;20444;-70
2022/08/06 12:44:46;;;;;;;;;;;35.70;99.90;;;;;;5054479;28;19978;-70
2022/08/06 12:47:12;;;;;;;;;;;35.70;99.90;;;;;;5073746;28;20389;-70
2022/08/06 12:49:37;;;;;;;;;;;35.70;99.90;;;;;;5091867;28;19919;-70
2022/08/06 12:52:17;;;;;;;;;;;35.70;99.90;;;;;;5073005;28;19991;-70
2022/08/06 12:54:46;;;;;;;;;;;35.80;99.90;;;;;;5092148;28;19912;-71
2022/08/06 12:57:21;;;;;;;;;;;35.90;99.90;;;;;;5092785;28;20010;-71
2022/08/06 12:59:47;;;;;;;;;;;36.00;99.90;;;;;;5085708;28;19969;-70
2022/08/06 13:02:14;;;;;;;;;;;36.20;99.90;;;;;;5111568;28;19919;-70
2022/08/06 13:04:42;;;;;;;;;;;36.30;99.90;;;;;;5111991;28;19998;-70
2022/08/06 13:07:08;;;;;;;;;;;35.50;99.90;;;;;;5076427;28;20296;-71
2022/08/06 13:09:34;;;;;;;;;;;34.30;99.90;;;;;;5090735;28;19915;-70
2022/08/06 13:12:10;;;;;;;;;;;33.70;99.90;;;;;;5091909;28;19916;-69
2022/08/06 13:14:47;;;;;;;;;;;33.40;99.90;;;;;;5090473;28;19915;-70
2022/08/06 13:17:13;;;;;;;;;;;33.30;99.90;;;;;;5094408;28;20045;-70
2022/08/06 13:19:49;;;;;;;;;;;33.10;99.90;;;;;;5111628;28;20006;-72
2022/08/06 13:22:15;;;;;;;;;;;33.20;99.90;;;;;;5108840;28;19922;-71
2022/08/06 13:24:41;;;;;;;;;;;33.20;99.90;;;;;;5090114;28;19912;-71
2022/08/06 13:27:07;;;;;;;;;;;33.30;99.90;;;;;;5104585;28;19989;-71
2022/08/06 13:29:32;;;;;;;;;;;33.30;99.90;;;;;;5093158;28;19911;-69
2022/08/06 13:32:02;;;;;;;;;;;33.20;99.90;;;;;;5111692;28;20457;-69
2022/08/06 13:34:28;;;;;;;;;;;33.00;99.90;;;;;;5101215;28;20543;-68
2022/08/06 13:36:55;;;;;;;;;;;32.80;99.90;;;;;;5100353;28;19962;-67
2022/08/06 13:39:21;;;;;;;;;;;32.60;99.90;;;;;;5091212;28;19908;-69
2022/08/06 13:41:46;;;;;;;;;;;32.50;99.90;;;;;;5091048;28;20003;-70
2022/08/06 13:44:32;;;;;;;;;;;32.00;99.90;;;;;;5091958;28;19943;-71
2022/08/06 13:46:58;;;;;;;;;;;31.70;99.90;;;;;;5107988;28;19912;-72
2022/08/06 13:49:23;;;;;;;;;;;31.30;99.90;;;;;;5107017;28;20442;-70
2022/08/06 13:51:49;;;;;;;;;;;30.90;99.90;;;;;;5073586;28;20391;-73
2022/08/06 13:54:15;;;;;;;;;;;30.50;99.90;;;;;;5098558;28;19919;-71
2022/08/06 13:56:41;;;;;;;;;;;30.40;99.90;;;;;;5117182;28;19908;-72
2022/08/06 13:59:07;;;;;;;;;;;30.80;99.90;;;;;;5104229;28;19928;-72
2022/08/06 14:01:33;;;;;;;;;;;30.80;99.90;;;;;;5089969;28;19912;-72
2022/08/06 14:03:58;;;;;;;;;;;30.60;99.90;;;;;;5096306;28;19967;-71
2022/08/06 14:06:24;;;;;;;;;;;30.50;99.90;;;;;;5100341;28;20002;-71
2022/08/06 14:08:49;;;;;;;;;;;30.60;99.90;;;;;;5091309;28;19974;-72
2022/08/06 14:11:15;;;;;;;;;;;30.40;99.90;;;;;;5093809;28;19942;-70
2022/08/06 14:13:40;;;;;;;;;;;30.40;99.90;;;;;;5100982;28;19920;-71
2022/08/06 14:16:06;;;;;;;;;;;30.20;99.90;;;;;;5098078;28;19981;-70
2022/08/06 14:18:32;;;;;;;;;;;29.80;99.90;;;;;;5092810;28;19920;-74
2022/08/06 14:20:57;;;;;;;;;;;29.30;99.90;;;;;;5089665;28;20342;-71
2022/08/06 14:23:23;;;;;;;;;;;28.60;99.90;;;;;;5075938;28;19927;-72
2022/08/06 14:25:49;;;;;;;;;;;27.90;99.90;;;;;;5108426;28;19969;-72
2022/08/06 14:28:16;;;;;;;;;;;27.00;99.90;;;;;;5113334;28;19912;-73